Time;durP1;ratioP1;P1;durP2;ratioP2;P2;SDS_P1;SDS_P2;PMS_P1;PMS_P2;Temp;Humidity;BMP_temperature;BMP_pressure;BME280_temperature;BME280_humidity;BME280_pressure;Samples;Min_cycle;Max_cycle;Signal;HPM_P1;HPM_P2
2021/09/01 00:01:51;;;;;;;3.00;2.58;;;24.40;53.70;;;;;;4166598;28;20046;-45
2021/09/01 00:03:54;;;;;;;3.95;2.65;;;24.50;53.90;;;;;;4166670;28;20052;-44
2021/09/01 00:05:56;;;;;;;2.85;2.58;;;24.50;55.50;;;;;;4166450;28;20065;-46
2021/09/01 00:07:58;;;;;;;4.70;2.63;;;24.40;55.60;;;;;;4166475;28;20061;-46
2021/09/01 00:10:00;;;;;;;3.67;2.63;;;24.40;56.10;;;;;;4166598;28;20061;-46
2021/09/01 00:12:02;;;;;;;3.88;2.75;;;24.40;54.90;;;;;;4166254;28;20060;-44
2021/09/01 00:14:04;;;;;;;2.78;2.45;;;24.40;54.70;;;;;;4166395;28;20065;-44
2021/09/01 00:16:06;;;;;;;3.00;2.55;;;24.40;55.70;;;;;;4166364;28;20061;-45
2021/09/01 00:18:08;;;;;;;2.92;2.63;;;24.40;55.70;;;;;;4166398;28;20048;-45
2021/09/01 00:20:11;;;;;;;3.30;2.58;;;24.40;54.30;;;;;;4166169;28;20071;-45
2021/09/01 00:22:13;;;;;;;2.75;2.38;;;24.40;54.10;;;;;;4166236;28;20102;-45
2021/09/01 00:24:16;;;;;;;2.97;2.10;;;24.40;54.30;;;;;;4166058;28;20065;-44
2021/09/01 00:26:19;;;;;;;3.90;3.22;;;24.40;55.50;;;;;;4166180;28;20044;-45
2021/09/01 00:28:21;;;;;;;6.32;3.00;;;24.40;54.20;;;;;;4165264;28;20051;-46
2021/09/01 00:30:23;;;;;;;3.20;2.65;;;24.40;53.00;;;;;;4165174;28;20041;-46
2021/09/01 00:32:25;;;;;;;5.03;2.95;;;24.40;55.10;;;;;;4166036;28;20061;-44
2021/09/01 00:34:27;;;;;;;3.45;2.60;;;24.40;54.50;;;;;;4165910;28;20097;-46
2021/09/01 00:36:29;;;;;;;4.05;3.10;;;24.40;54.40;;;;;;4166003;28;20106;-49
2021/09/01 00:38:31;;;;;;;3.42;2.60;;;24.40;53.00;;;;;;4166138;28;20056;-46
2021/09/01 00:40:33;;;;;;;4.80;3.60;;;24.40;53.00;;;;;;4165266;28;20046;-45
2021/09/01 00:42:38;;;;;;;5.40;3.80;;;24.40;53.20;;;;;;4165863;28;20147;-47
2021/09/01 00:44:40;;;;;;;3.67;2.83;;;24.40;52.60;;;;;;4165845;28;20056;-43
2021/09/01 00:46:46;;;;;;;3.95;3.38;;;24.40;53.60;;;;;;4165698;28;20113;-45
2021/09/01 00:48:51;;;;;;;5.38;2.85;;;24.40;52.80;;;;;;4165655;28;20049;-45
2021/09/01 00:50:54;;;;;;;5.38;3.47;;;24.40;53.20;;;;;;4165766;28;20072;-46
2021/09/01 00:52:56;;;;;;;3.75;3.38;;;24.40;52.60;;;;;;4165793;28;20106;-47
2021/09/01 00:54:59;;;;;;;3.00;2.50;;;24.40;52.50;;;;;;4165840;28;20106;-46
2021/09/01 00:57:05;;;;;;;3.20;2.55;;;24.40;53.30;;;;;;4165902;28;20068;-49
2021/09/01 00:59:07;;;;;;;4.63;2.75;;;24.40;52.60;;;;;;4165832;28;20064;-45
2021/09/01 01:01:15;;;;;;;3.58;3.25;;;24.40;52.60;;;;;;4165745;28;20052;-47
2021/09/01 01:03:18;;;;;;;4.53;3.42;;;24.40;52.10;;;;;;4165743;28;20053;-46
2021/09/01 01:05:20;;;;;;;3.50;3.05;;;24.40;53.30;;;;;;4165532;28;20048;-44
2021/09/01 01:07:23;;;;;;;4.60;3.20;;;24.40;52.20;;;;;;4165751;28;20049;-47
2021/09/01 01:09:25;;;;;;;3.92;2.75;;;24.40;53.10;;;;;;4165334;28;20049;-46
2021/09/01 01:11:27;;;;;;;5.60;3.13;;;24.40;52.80;;;;;;4165539;28;20101;-45
2021/09/01 01:13:29;;;;;;;3.92;3.22;;;24.40;52.70;;;;;;4165781;28;20105;-46
2021/09/01 01:15:32;;;;;;;8.98;4.72;;;24.40;52.70;;;;;;4165667;28;20057;-49
2021/09/01 01:17:34;;;;;;;4.35;3.05;;;24.40;52.00;;;;;;4165605;28;20065;-48
2021/09/01 01:19:44;;;;;;;4.93;3.30;;;24.40;52.50;;;;;;4165401;28;20042;-44
2021/09/01 01:21:47;;;;;;;4.30;3.13;;;24.40;52.80;;;;;;4165439;28;20073;-45
2021/09/01 01:24:02;;;;;;;5.25;3.33;;;24.40;53.40;;;;;;4164685;28;20045;-46
2021/09/01 01:26:04;;;;;;;4.55;3.25;;;24.40;52.20;;;;;;4165455;28;20101;-47
2021/09/01 01:28:07;;;;;;;4.60;3.08;;;24.40;53.30;;;;;;4165173;28;20069;-45
2021/09/01 01:30:16;;;;;;;5.95;3.78;;;24.40;52.60;;;;;;4165181;28;20467;-45
2021/09/01 01:32:18;;;;;;;4.28;3.20;;;24.40;52.20;;;;;;4165288;28;20080;-45
2021/09/01 01:34:20;;;;;;;3.92;3.03;;;24.40;53.00;;;;;;4165295;28;20042;-47
2021/09/01 01:36:25;;;;;;;6.25;3.05;;;24.40;51.90;;;;;;4165255;28;20073;-46
2021/09/01 01:38:27;;;;;;;3.50;2.78;;;24.40;52.40;;;;;;4165208;28;20038;-44
2021/09/01 01:40:30;;;;;;;7.70;3.22;;;24.40;52.40;;;;;;4165338;28;20042;-45
2021/09/01 01:42:41;;;;;;;3.42;3.00;;;24.40;52.30;;;;;;4165095;28;20076;-44
2021/09/01 01:44:43;;;;;;;4.20;3.10;;;24.40;52.50;;;;;;4164928;28;20074;-45
2021/09/01 01:46:45;;;;;;;4.13;3.25;;;24.40;52.10;;;;;;4165172;28;20101;-44
2021/09/01 01:48:47;;;;;;;10.60;4.32;;;24.40;52.30;;;;;;4164846;28;20046;-46
2021/09/01 01:50:49;;;;;;;4.18;3.13;;;24.40;52.00;;;;;;4164287;28;20042;-44
2021/09/01 01:52:51;;;;;;;5.57;3.80;;;24.40;52.80;;;;;;4169829;28;20072;-45
2021/09/01 01:54:53;;;;;;;5.10;3.90;;;24.40;52.00;;;;;;4170836;28;20471;-45
2021/09/01 01:56:55;;;;;;;3.42;2.70;;;24.40;52.00;;;;;;4170521;28;20042;-45
2021/09/01 01:58:57;;;;;;;4.50;3.15;;;24.40;52.40;;;;;;4170508;28;20083;-45
2021/09/01 02:00:59;;;;;;;4.40;3.00;;;24.40;52.10;;;;;;4170424;28;20041;-45
2021/09/01 02:03:01;;;;;;;6.43;3.50;;;24.40;52.10;;;;;;4170380;28;20041;-45
2021/09/01 02:05:04;;;;;;;3.60;3.20;;;24.40;52.00;;;;;;4170559;28;20053;-46
2021/09/01 02:07:06;;;;;;;4.85;3.30;;;24.40;51.70;;;;;;4169582;28;20056;-46
2021/09/01 02:09:08;;;;;;;4.20;3.17;;;24.40;51.80;;;;;;4170303;28;20105;-44
2021/09/01 02:11:10;;;;;;;4.65;3.72;;;24.40;51.70;;;;;;4170571;28;20049;-45
2021/09/01 02:13:12;;;;;;;5.43;2.97;;;24.40;52.10;;;;;;4170443;28;20124;-44
2021/09/01 02:15:14;;;;;;;7.20;4.03;;;24.40;52.60;;;;;;4170207;28;20041;-46
2021/09/01 02:17:16;;;;;;;4.20;3.05;;;24.40;51.80;;;;;;4169614;28;20069;-45
2021/09/01 02:19:18;;;;;;;4.10;3.13;;;24.40;52.00;;;;;;4185789;28;20045;-45
2021/09/01 02:21:20;;;;;;;5.35;3.40;;;24.40;51.90;;;;;;4170517;28;20053;-46
2021/09/01 02:23:22;;;;;;;4.70;3.38;;;24.40;52.00;;;;;;4170328;28;20253;-45
2021/09/01 02:25:26;;;;;;;4.60;3.35;;;24.40;52.00;;;;;;4170206;28;20132;-46
2021/09/01 02:27:28;;;;;;;4.20;3.30;;;24.40;52.20;;;;;;4170359;28;20072;-44
2021/09/01 02:29:30;;;;;;;4.50;3.67;;;24.40;52.00;;;;;;4170262;28;20049;-48
2021/09/01 02:31:32;;;;;;;3.50;3.05;;;24.40;51.70;;;;;;4170388;28;20046;-47
2021/09/01 02:33:34;;;;;;;5.35;3.65;;;24.40;52.20;;;;;;4170196;28;20108;-46
2021/09/01 02:35:36;;;;;;;6.00;3.38;;;24.40;52.20;;;;;;4170292;28;20053;-44
2021/09/01 02:37:38;;;;;;;4.38;3.42;;;24.40;51.70;;;;;;4170230;28;20042;-44
2021/09/01 02:39:40;;;;;;;3.38;3.08;;;24.40;51.80;;;;;;4170185;28;20097;-45
2021/09/01 02:41:42;;;;;;;5.32;3.88;;;24.40;52.10;;;;;;4170276;28;20050;-46
2021/09/01 02:43:44;;;;;;;4.25;3.40;;;24.40;51.50;;;;;;4170169;28;20050;-47
2021/09/01 02:45:46;;;;;;;4.15;3.70;;;24.40;51.90;;;;;;4170123;28;20048;-46
2021/09/01 02:47:48;;;;;;;4.57;3.55;;;24.30;51.40;;;;;;4169160;28;20057;-47
2021/09/01 02:49:50;;;;;;;7.35;3.88;;;24.40;51.60;;;;;;4169949;28;20048;-46
2021/09/01 02:51:52;;;;;;;7.28;3.60;;;24.30;51.90;;;;;;4170173;28;20046;-45
2021/09/01 02:53:54;;;;;;;5.63;3.60;;;24.30;51.80;;;;;;4170096;28;20042;-46
2021/09/01 02:55:56;;;;;;;4.32;3.53;;;24.40;51.70;;;;;;4170017;28;20049;-47
2021/09/01 02:57:58;;;;;;;5.60;3.95;;;24.40;51.60;;;;;;4170199;28;20042;-49
2021/09/01 03:00:01;;;;;;;5.38;3.35;;;24.30;51.40;;;;;;4169939;28;20073;-47
2021/09/01 03:02:03;;;;;;;5.65;3.88;;;24.40;51.70;;;;;;4170131;28;20061;-45
2021/09/01 03:04:05;;;;;;;5.28;4.03;;;24.30;51.40;;;;;;4167327;28;20050;-45
2021/09/01 03:06:07;;;;;;;4.40;3.53;;;24.40;51.40;;;;;;4167186;28;20105;-47
2021/09/01 03:08:09;;;;;;;4.93;4.05;;;24.40;51.50;;;;;;4167606;28;20073;-45
2021/09/01 03:10:11;;;;;;;6.10;4.40;;;24.30;51.40;;;;;;4167367;28;20045;-44
2021/09/01 03:12:13;;;;;;;7.88;4.63;;;24.30;51.30;;;;;;4167340;28;20052;-44
2021/09/01 03:14:15;;;;;;;7.20;4.30;;;24.40;51.30;;;;;;4167380;28;20096;-47
2021/09/01 03:16:17;;;;;;;6.55;4.32;;;24.30;51.50;;;;;;4167309;28;20041;-45
2021/09/01 03:18:20;;;;;;;6.43;4.45;;;24.30;51.30;;;;;;4167279;28;20046;-44
2021/09/01 03:20:22;;;;;;;7.15;3.83;;;24.30;51.50;;;;;;4167009;28;20136;-45
2021/09/01 03:22:24;;;;;;;5.35;4.57;;;24.40;51.10;;;;;;4167082;28;20105;-46
2021/09/01 03:24:26;;;;;;;6.25;4.10;;;24.40;51.20;;;;;;4167235;28;20522;-45
2021/09/01 03:26:31;;;;;;;5.18;3.78;;;24.40;51.00;;;;;;4167005;28;20076;-46
2021/09/01 03:28:33;;;;;;;6.45;4.40;;;24.30;51.30;;;;;;4167218;28;20053;-45
2021/09/01 03:30:35;;;;;;;5.10;4.15;;;24.30;51.10;;;;;;4166900;28;20049;-45
2021/09/01 03:32:37;;;;;;;4.78;3.88;;;24.30;50.90;;;;;;4166820;28;20041;-45
2021/09/01 03:34:39;;;;;;;5.25;3.78;;;24.30;51.30;;;;;;4167172;28;20041;-44
2021/09/01 03:36:41;;;;;;;6.20;4.32;;;24.30;51.20;;;;;;4166851;28;20102;-45
2021/09/01 03:38:44;;;;;;;5.72;4.93;;;24.30;51.20;;;;;;4166910;28;20102;-46
2021/09/01 03:40:46;;;;;;;5.53;4.30;;;24.30;51.30;;;;;;4166797;28;20042;-46
2021/09/01 03:42:48;;;;;;;6.28;4.07;;;24.30;51.50;;;;;;4166594;28;20046;-46
2021/09/01 03:44:50;;;;;;;6.57;4.05;;;24.30;51.50;;;;;;4166652;28;20046;-45
2021/09/01 03:46:52;;;;;;;6.60;4.05;;;24.30;51.50;;;;;;4166779;28;20056;-48
2021/09/01 03:48:54;;;;;;;5.05;4.50;;;24.30;51.40;;;;;;4166756;28;20475;-46
2021/09/01 03:50:56;;;;;;;6.10;4.70;;;24.30;51.20;;;;;;4166472;28;20050;-45
2021/09/01 03:52:57;;;;;;;5.80;4.40;;;24.30;51.30;;;;;;4166646;28;20046;-45
2021/09/01 03:55:01;;;;;;;6.95;4.90;;;24.30;51.40;;;;;;4166643;28;20046;-48
2021/09/01 03:57:05;;;;;;;6.55;4.40;;;24.30;51.30;;;;;;4166685;28;20108;-45
2021/09/01 03:59:08;;;;;;;6.88;4.78;;;24.40;51.20;;;;;;4166626;28;20098;-45
2021/09/01 04:01:10;;;;;;;6.10;4.30;;;24.30;51.20;;;;;;4166608;28;20033;-45
2021/09/01 04:03:12;;;;;;;8.90;4.70;;;24.30;51.20;;;;;;4166551;28;20038;-44
2021/09/01 04:05:14;;;;;;;4.88;4.18;;;24.30;51.20;;;;;;4166538;28;20041;-45
2021/09/01 04:07:16;;;;;;;9.80;5.55;;;24.30;51.30;;;;;;4166336;28;20117;-44
2021/09/01 04:09:18;;;;;;;6.85;4.55;;;24.30;51.00;;;;;;4166317;28;20069;-44
2021/09/01 04:11:20;;;;;;;7.68;4.47;;;24.30;51.20;;;;;;4166485;28;20061;-45
2021/09/01 04:13:22;;;;;;;6.85;4.47;;;24.30;50.90;;;;;;4166394;28;20073;-44
2021/09/01 04:15:24;;;;;;;6.10;4.93;;;24.30;51.80;;;;;;4165127;28;20056;-45
2021/09/01 04:17:30;;;;;;;7.72;4.57;;;24.30;51.20;;;;;;4166274;28;20046;-46
2021/09/01 04:19:32;;;;;;;6.30;4.50;;;24.30;50.90;;;;;;4166473;28;20069;-45
2021/09/01 04:21:34;;;;;;;5.95;4.72;;;24.30;51.20;;;;;;4166269;28;20056;-47
2021/09/01 04:23:37;;;;;;;6.10;5.22;;;24.30;51.20;;;;;;4165897;28;20120;-45
2021/09/01 04:25:39;;;;;;;6.15;4.60;;;24.30;51.10;;;;;;4166173;28;20060;-45
2021/09/01 04:27:41;;;;;;;7.75;4.47;;;24.30;50.90;;;;;;4166191;28;20046;-44
2021/09/01 04:29:43;;;;;;;4.35;3.90;;;24.30;51.00;;;;;;4166117;28;20093;-46
2021/09/01 04:31:45;;;;;;;7.07;5.03;;;24.30;51.20;;;;;;4166026;28;20046;-45
2021/09/01 04:33:47;;;;;;;7.50;4.85;;;24.30;51.00;;;;;;4166126;28;20065;-44
2021/09/01 04:35:49;;;;;;;5.97;4.45;;;24.30;51.30;;;;;;4166143;28;20276;-46
2021/09/01 04:37:51;;;;;;;6.82;4.63;;;24.30;51.40;;;;;;4166136;28;20066;-46
2021/09/01 04:39:53;;;;;;;5.40;4.57;;;24.30;51.20;;;;;;4165879;28;20042;-43
2021/09/01 04:41:55;;;;;;;6.68;4.65;;;24.30;51.20;;;;;;4164804;28;20050;-44
2021/09/01 04:43:57;;;;;;;5.22;4.20;;;24.30;51.00;;;;;;4166033;28;20097;-45
2021/09/01 04:45:59;;;;;;;6.05;4.05;;;24.30;51.40;;;;;;4165705;28;20053;-44
2021/09/01 04:48:01;;;;;;;5.70;4.03;;;24.30;51.50;;;;;;4165917;28;20053;-44
2021/09/01 04:50:03;;;;;;;7.60;4.55;;;24.30;51.30;;;;;;4165614;28;20044;-46
2021/09/01 04:52:05;;;;;;;5.60;4.05;;;24.30;51.30;;;;;;4165728;28;20093;-45
2021/09/01 04:54:07;;;;;;;4.97;4.20;;;24.30;51.20;;;;;;4165585;28;20041;-44
2021/09/01 04:56:09;;;;;;;4.57;3.53;;;24.30;51.20;;;;;;4165799;28;20050;-45
2021/09/01 04:58:11;;;;;;;5.88;4.35;;;24.30;51.80;;;;;;4165701;28;20060;-43
2021/09/01 05:00:14;;;;;;;4.82;3.80;;;24.30;51.30;;;;;;4165701;28;20052;-44
2021/09/01 05:02:16;;;;;;;4.00;3.60;;;24.30;51.20;;;;;;4165510;28;20049;-44
2021/09/01 05:04:18;;;;;;;4.85;4.20;;;24.30;51.50;;;;;;4165371;28;20053;-44
2021/09/01 05:06:20;;;;;;;5.75;3.92;;;24.30;51.20;;;;;;4165323;28;20118;-44
2021/09/01 05:08:23;;;;;;;8.07;3.97;;;24.30;51.20;;;;;;4165525;28;20149;-45
2021/09/01 05:10:25;;;;;;;5.15;3.95;;;24.30;51.20;;;;;;4165533;28;20061;-44
2021/09/01 05:12:27;;;;;;;5.38;3.88;;;24.30;51.30;;;;;;4165390;28;20073;-49
2021/09/01 05:14:29;;;;;;;6.38;3.92;;;24.30;51.10;;;;;;4165382;28;20073;-47
2021/09/01 05:16:31;;;;;;;7.50;4.35;;;24.30;51.40;;;;;;4165273;28;20042;-49
2021/09/01 05:18:33;;;;;;;5.72;4.03;;;24.30;51.40;;;;;;4164410;28;20076;-45
2021/09/01 05:20:38;;;;;;;4.70;3.58;;;24.20;51.40;;;;;;4165579;28;20056;-46
2021/09/01 05:22:44;;;;;;;4.38;3.50;;;24.30;51.70;;;;;;4165589;28;20042;-45
2021/09/01 05:24:57;;;;;;;5.22;4.10;;;24.30;51.60;;;;;;4165317;28;20102;-49
2021/09/01 05:27:08;;;;;;;3.90;3.50;;;24.30;51.40;;;;;;4165175;28;20053;-48
2021/09/01 05:29:11;;;;;;;5.55;4.07;;;24.30;51.90;;;;;;4165450;28;20046;-44
2021/09/01 05:31:13;;;;;;;4.20;3.63;;;24.30;51.40;;;;;;4165162;28;20049;-44
2021/09/01 05:33:19;;;;;;;4.70;3.50;;;24.30;51.90;;;;;;4165310;28;20046;-46
2021/09/01 05:35:21;;;;;;;4.60;3.75;;;24.30;51.70;;;;;;4165061;28;20045;-43
2021/09/01 05:37:24;;;;;;;3.78;3.40;;;24.30;51.60;;;;;;4165348;28;20072;-46
2021/09/01 05:39:26;;;;;;;4.97;3.67;;;24.30;52.10;;;;;;4165339;28;20069;-44
2021/09/01 05:41:29;;;;;;;4.30;3.47;;;24.30;51.90;;;;;;4165058;28;20046;-47
2021/09/01 05:43:31;;;;;;;4.03;3.38;;;24.30;52.00;;;;;;4165161;28;20053;-49
2021/09/01 05:45:34;;;;;;;4.43;3.88;;;24.30;52.20;;;;;;4165079;28;20046;-45
2021/09/01 05:47:36;;;;;;;4.13;3.20;;;24.30;51.80;;;;;;4164774;28;20113;-45
2021/09/01 05:49:39;;;;;;;3.92;3.50;;;24.30;52.50;;;;;;4165170;28;20097;-43
2021/09/01 05:51:42;;;;;;;4.22;3.53;;;24.30;51.80;;;;;;4165203;28;20513;-44
2021/09/01 05:53:44;;;;;;;5.00;3.95;;;24.30;52.10;;;;;;4164273;28;20117;-44
2021/09/01 05:55:49;;;;;;;4.28;3.30;;;24.30;52.90;;;;;;4165221;28;20124;-44
2021/09/01 05:57:59;;;;;;;4.65;3.45;;;24.30;52.00;;;;;;4165133;28;20145;-47
2021/09/01 06:00:04;;;;;;;4.63;3.58;;;24.30;51.80;;;;;;4165103;28;20070;-45
2021/09/01 06:02:10;;;;;;;5.90;3.53;;;24.30;52.50;;;;;;4164896;28;20045;-43
2021/09/01 06:04:16;;;;;;;4.63;3.53;;;24.40;53.40;;;;;;4165102;28;20073;-46
2021/09/01 06:06:21;;;;;;;3.88;3.47;;;24.30;52.10;;;;;;4165033;28;20046;-46
2021/09/01 06:08:30;;;;;;;4.30;3.40;;;24.40;52.20;;;;;;4165179;28;20060;-46
2021/09/01 06:10:33;;;;;;;4.25;3.20;;;24.30;52.00;;;;;;4164881;28;20097;-45
2021/09/01 06:12:40;;;;;;;3.95;3.33;;;24.30;53.10;;;;;;4165069;28;20042;-44
2021/09/01 06:14:42;;;;;;;3.85;3.42;;;24.40;52.00;;;;;;4165084;28;20042;-44
2021/09/01 06:16:44;;;;;;;3.65;3.28;;;24.30;52.20;;;;;;4164829;28;20056;-46
2021/09/01 06:18:46;;;;;;;5.28;3.28;;;24.40;53.20;;;;;;4165030;28;20046;-46
2021/09/01 06:20:53;;;;;;;6.10;3.72;;;24.30;52.20;;;;;;4164906;28;20073;-45
2021/09/01 06:22:56;;;;;;;5.00;3.17;;;24.30;52.10;;;;;;4164993;28;20081;-44
2021/09/01 06:25:00;;;;;;;4.28;3.22;;;24.30;52.10;;;;;;4180404;28;20109;-45
2021/09/01 06:27:03;;;;;;;4.20;3.38;;;24.30;53.90;;;;;;4164909;28;20045;-44
2021/09/01 06:29:05;;;;;;;3.40;3.03;;;24.30;53.70;;;;;;4164772;28;20060;-46
2021/09/01 06:31:07;;;;;;;4.25;3.45;;;24.30;52.10;;;;;;4163935;28;20121;-46
2021/09/01 06:33:09;;;;;;;4.88;3.33;;;24.30;53.50;;;;;;4163721;28;20046;-45
2021/09/01 06:35:12;;;;;;;3.75;3.13;;;24.30;54.40;;;;;;4164828;28;20046;-44
2021/09/01 06:37:14;;;;;;;3.83;3.25;;;24.30;53.80;;;;;;4164974;28;20038;-46
2021/09/01 06:39:16;;;;;;;3.53;3.08;;;24.30;53.50;;;;;;4166406;28;20065;-45
2021/09/01 06:41:18;;;;;;;5.93;2.75;;;24.30;52.90;;;;;;4167970;28;20050;-46
2021/09/01 06:43:20;;;;;;;3.67;3.10;;;24.30;53.30;;;;;;4167882;28;20050;-45
2021/09/01 06:45:22;;;;;;;4.30;3.40;;;24.30;54.10;;;;;;4167630;28;20105;-45
2021/09/01 06:47:24;;;;;;;3.33;3.03;;;24.30;52.60;;;;;;4167822;28;20109;-47
2021/09/01 06:49:26;;;;;;;4.47;2.75;;;24.30;53.00;;;;;;4166922;28;20060;-45
2021/09/01 06:51:28;;;;;;;5.80;3.40;;;24.30;55.00;;;;;;4167688;28;20097;-44
2021/09/01 06:53:30;;;;;;;4.57;3.13;;;24.30;53.30;;;;;;4167647;28;20077;-48
2021/09/01 06:55:32;;;;;;;5.45;3.30;;;24.30;53.90;;;;;;4167510;28;20073;-48
2021/09/01 06:57:35;;;;;;;4.38;3.42;;;24.30;53.60;;;;;;4167740;28;20046;-45
2021/09/01 06:59:37;;;;;;;4.35;3.45;;;24.30;53.00;;;;;;4167498;28;20046;-44
2021/09/01 07:01:39;;;;;;;2.97;2.75;;;24.30;52.80;;;;;;4167405;28;20061;-45
2021/09/01 07:03:42;;;;;;;4.85;3.30;;;24.30;53.30;;;;;;4166650;28;20042;-46
2021/09/01 07:05:43;;;;;;;4.93;3.67;;;24.30;52.60;;;;;;4167448;28;20065;-48
2021/09/01 07:07:45;;;;;;;3.65;3.35;;;24.30;53.10;;;;;;4167603;28;20120;-44
2021/09/01 07:09:48;;;;;;;3.08;2.78;;;24.30;53.60;;;;;;4167455;28;20076;-44
2021/09/01 07:11:49;;;;;;;3.45;3.10;;;24.30;53.30;;;;;;4167364;28;20044;-45
2021/09/01 07:13:52;;;;;;;4.03;3.20;;;24.30;52.80;;;;;;4167470;28;20046;-44
2021/09/01 07:15:53;;;;;;;3.55;3.10;;;24.30;52.40;;;;;;4167093;28;20106;-49
2021/09/01 07:17:56;;;;;;;3.50;3.20;;;24.30;52.60;;;;;;4166984;28;20239;-44
2021/09/01 07:19:58;;;;;;;4.18;3.45;;;24.30;52.50;;;;;;4167142;28;20041;-43
2021/09/01 07:22:04;;;;;;;4.00;3.30;;;24.30;52.40;;;;;;4167379;28;20038;-44
2021/09/01 07:24:06;;;;;;;6.18;3.28;;;24.30;54.80;;;;;;4167362;28;20053;-44
2021/09/01 07:26:10;;;;;;;4.72;3.33;;;24.30;53.70;;;;;;4167115;28;20050;-45
2021/09/01 07:28:12;;;;;;;4.25;2.97;;;24.40;52.70;;;;;;4167295;28;20046;-45
2021/09/01 07:30:15;;;;;;;3.25;2.95;;;24.40;55.20;;;;;;4167011;28;20097;-44
2021/09/01 07:32:17;;;;;;;3.53;3.22;;;24.30;52.70;;;;;;4167033;28;20045;-44
2021/09/01 07:34:19;;;;;;;4.30;2.95;;;24.30;52.60;;;;;;4167175;28;20065;-44
2021/09/01 07:36:21;;;;;;;3.88;3.50;;;24.30;53.90;;;;;;4167127;28;20061;-44
2021/09/01 07:38:23;;;;;;;3.42;3.03;;;24.30;52.90;;;;;;4167052;28;20046;-44
2021/09/01 07:40:25;;;;;;;11.95;3.83;;;24.30;53.00;;;;;;4166057;28;20046;-45
2021/09/01 07:42:27;;;;;;;3.35;2.88;;;24.30;52.60;;;;;;4166975;28;20768;-43
2021/09/01 07:44:30;;;;;;;4.78;3.33;;;24.30;52.90;;;;;;4166642;28;20125;-46
2021/09/01 07:46:33;;;;;;;4.25;3.13;;;24.30;53.10;;;;;;4166620;28;20053;-44
2021/09/01 07:48:35;;;;;;;3.20;2.90;;;24.40;52.60;;;;;;4166942;28;20045;-47
2021/09/01 07:50:37;;;;;;;2.70;2.50;;;24.30;52.60;;;;;;4166349;28;20656;-45
2021/09/01 07:52:39;;;;;;;3.65;3.35;;;24.30;52.80;;;;;;4166649;28;20048;-45
2021/09/01 07:54:41;;;;;;;4.03;3.63;;;24.30;52.80;;;;;;4166777;28;20042;-45
2021/09/01 07:56:43;;;;;;;3.30;3.00;;;24.30;52.70;;;;;;4166831;28;20097;-45
2021/09/01 07:58:45;;;;;;;4.90;3.30;;;24.30;53.00;;;;;;4166628;28;20056;-46
2021/09/01 08:00:47;;;;;;;3.85;3.17;;;24.30;52.70;;;;;;4166335;28;20101;-46
2021/09/01 08:02:51;;;;;;;4.28;3.13;;;24.40;52.80;;;;;;4166112;28;20106;-44
2021/09/01 08:04:54;;;;;;;4.10;3.20;;;24.30;53.50;;;;;;4166443;28;20065;-45
2021/09/01 08:06:56;;;;;;;3.28;2.97;;;24.30;53.10;;;;;;4166429;28;20077;-44
2021/09/01 08:08:58;;;;;;;3.30;2.90;;;24.30;53.20;;;;;;4166454;28;20145;-46
2021/09/01 08:11:00;;;;;;;3.40;3.10;;;24.30;54.40;;;;;;4166352;28;20042;-44
2021/09/01 08:13:02;;;;;;;2.95;2.65;;;24.30;52.90;;;;;;4166260;28;20110;-44
2021/09/01 08:15:05;;;;;;;3.00;2.70;;;24.30;52.70;;;;;;4181656;28;20136;-45
2021/09/01 08:17:07;;;;;;;3.65;3.35;;;24.30;53.30;;;;;;4166565;28;20057;-44
2021/09/01 08:19:09;;;;;;;3.85;3.00;;;24.30;53.50;;;;;;4166606;28;20052;-44
2021/09/01 08:21:11;;;;;;;3.35;3.03;;;24.30;52.90;;;;;;4166477;28;20052;-43
2021/09/01 08:23:14;;;;;;;3.38;2.85;;;24.30;53.00;;;;;;4166371;28;20120;-44
2021/09/01 08:25:16;;;;;;;3.15;2.85;;;24.30;53.00;;;;;;4166236;28;20109;-44
2021/09/01 08:27:18;;;;;;;3.38;3.03;;;24.40;53.60;;;;;;4166069;28;20084;-46
2021/09/01 08:29:20;;;;;;;3.67;3.10;;;24.40;53.00;;;;;;4165963;28;20050;-44
2021/09/01 08:31:22;;;;;;;4.68;3.20;;;24.30;53.00;;;;;;4165886;28;20046;-45
2021/09/01 08:33:25;;;;;;;3.63;3.00;;;24.30;53.00;;;;;;4166149;28;20038;-44
2021/09/01 08:35:26;;;;;;;3.50;3.13;;;24.30;52.90;;;;;;4166075;28;20050;-43
2021/09/01 08:37:28;;;;;;;3.70;2.75;;;24.40;52.90;;;;;;4166073;28;20182;-44
2021/09/01 08:39:31;;;;;;;3.58;2.80;;;24.30;52.90;;;;;;4166092;28;20094;-46
2021/09/01 08:41:36;;;;;;;5.40;3.00;;;24.30;52.90;;;;;;4166136;28;20050;-45
2021/09/01 08:43:38;;;;;;;4.25;3.10;;;24.30;52.90;;;;;;4166030;28;20052;-44
2021/09/01 08:45:40;;;;;;;3.13;2.80;;;24.30;52.90;;;;;;4165854;28;20081;-46
2021/09/01 08:47:43;;;;;;;3.22;2.92;;;24.30;52.90;;;;;;4165782;28;20053;-48
2021/09/01 08:49:46;;;;;;;3.08;2.78;;;24.30;53.00;;;;;;4166043;28;20049;-44
2021/09/01 08:51:48;;;;;;;4.07;2.88;;;24.30;53.00;;;;;;4165734;28;20080;-50
2021/09/01 08:53:50;;;;;;;3.40;2.50;;;24.30;53.10;;;;;;4165577;28;20069;-45
2021/09/01 08:55:52;;;;;;;3.08;2.78;;;24.30;53.10;;;;;;4165739;28;20790;-46
2021/09/01 08:57:54;;;;;;;2.75;2.50;;;24.30;53.30;;;;;;4165885;28;20041;-46
2021/09/01 08:59:56;;;;;;;4.05;2.80;;;24.30;53.10;;;;;;4165442;28;20045;-45
2021/09/01 09:01:58;;;;;;;3.17;2.60;;;24.30;53.10;;;;;;4164940;28;20109;-44
2021/09/01 09:04:01;;;;;;;3.75;2.80;;;24.30;53.10;;;;;;4165594;28;20069;-44
2021/09/01 09:06:04;;;;;;;3.08;2.70;;;24.30;53.20;;;;;;4165498;28;20065;-44
2021/09/01 09:08:09;;;;;;;2.88;2.55;;;24.30;54.20;;;;;;4165740;28;20149;-47
2021/09/01 09:10:27;;;;;;;;;;;24.30;53.20;;;;;;4165121;28;20052;-47
2021/09/01 09:12:31;;;;;;;3.33;2.95;;;24.30;53.30;;;;;;4165439;28;19925;-47
2021/09/01 09:14:47;;;;;;;4.43;2.90;;;24.40;53.40;;;;;;4165516;28;20068;-45
2021/09/01 09:17:08;;;;;;;2.78;2.58;;;24.40;53.40;;;;;;4165672;28;20076;-44
2021/09/01 09:19:11;;;;;;;2.92;2.63;;;24.30;53.40;;;;;;4165423;28;20057;-44
2021/09/01 09:21:21;;;;;;;3.42;2.88;;;24.30;53.40;;;;;;4165490;28;20073;-45
2021/09/01 09:23:30;;;;;;;3.33;3.00;;;24.40;53.80;;;;;;4165422;28;20063;-46
2021/09/01 09:25:33;;;;;;;3.20;2.90;;;24.30;54.00;;;;;;4165462;28;20041;-45
2021/09/01 09:27:37;;;;;;;2.88;2.63;;;24.40;53.40;;;;;;4165377;28;20073;-44
2021/09/01 09:29:39;;;;;;;4.28;2.92;;;24.30;53.50;;;;;;4165361;28;20105;-47
2021/09/01 09:32:01;;;;;;;2.92;2.63;;;24.30;53.60;;;;;;4165187;28;20053;-45
2021/09/01 09:34:32;;;;;;;3.67;2.78;;;24.40;53.60;;;;;;4165245;28;20068;-44
2021/09/01 09:36:35;;;;;;;3.20;2.90;;;24.30;53.60;;;;;;4165407;28;20046;-44
2021/09/01 09:38:42;;;;;;;2.97;2.70;;;24.30;53.70;;;;;;4165260;28;20042;-44
2021/09/01 09:40:44;;;;;;;3.72;2.80;;;24.30;53.70;;;;;;4165242;28;20117;-48
2021/09/01 09:42:46;;;;;;;4.10;2.88;;;24.30;53.60;;;;;;4165279;28;20106;-45
2021/09/01 09:44:48;;;;;;;2.67;2.47;;;24.30;53.80;;;;;;4165162;28;20044;-44
2021/09/01 09:46:50;;;;;;;3.10;2.75;;;24.30;53.70;;;;;;4164802;28;20057;-48
2021/09/01 09:48:52;;;;;;;2.92;2.40;;;24.30;53.70;;;;;;4164956;28;20068;-45
2021/09/01 09:50:54;;;;;;;3.10;2.63;;;24.30;54.40;;;;;;4164795;28;20106;-49
2021/09/01 09:52:57;;;;;;;2.42;2.22;;;24.30;53.70;;;;;;4165099;28;20489;-46
2021/09/01 09:55:11;;;;;;;3.20;2.90;;;24.30;53.70;;;;;;4165202;28;20070;-49
2021/09/01 09:57:13;;;;;;;2.75;2.55;;;24.30;53.80;;;;;;4165040;28;20102;-44
2021/09/01 09:59:21;;;;;;;2.80;2.60;;;24.30;53.80;;;;;;4164939;28;20042;-47
2021/09/01 10:01:25;;;;;;;3.08;2.85;;;24.30;53.80;;;;;;4165138;28;20057;-44
2021/09/01 10:03:28;;;;;;;2.58;2.38;;;24.30;53.80;;;;;;4165012;28;20929;-44
2021/09/01 10:05:30;;;;;;;3.60;2.60;;;24.30;54.10;;;;;;4165194;28;20042;-46
2021/09/01 10:07:32;;;;;;;4.75;2.75;;;24.30;53.80;;;;;;4165036;28;20070;-45
2021/09/01 10:09:37;;;;;;;2.65;2.45;;;24.40;53.90;;;;;;4165151;28;20054;-46
2021/09/01 10:11:39;;;;;;;;;;;24.30;54.00;;;;;;4165208;28;20101;-47
2021/09/01 10:13:43;;;;;;;2.72;2.53;;;24.30;54.00;;;;;;4167332;28;19922;-45
2021/09/01 10:15:45;;;;;;;3.13;2.42;;;24.40;54.00;;;;;;4168150;28;20045;-46
2021/09/01 10:17:49;;;;;;;3.03;2.72;;;24.30;53.90;;;;;;4168239;28;20056;-45
2021/09/01 10:19:54;;;;;;;2.33;2.13;;;24.30;54.20;;;;;;4168367;28;20345;-46
2021/09/01 10:22:04;;;;;;;3.08;2.70;;;24.40;54.00;;;;;;4168351;28;20745;-44
2021/09/01 10:24:42;;;;;;;2.55;2.35;;;24.30;54.00;;;;;;4183519;28;20053;-45
2021/09/01 10:27:23;;;;;;;2.53;2.33;;;24.30;54.10;;;;;;4164352;28;20064;-45
2021/09/01 10:30:03;;;;;;;4.22;2.75;;;24.30;54.10;;;;;;4168014;28;20065;-50
2021/09/01 10:32:21;;;;;;;2.78;2.53;;;24.30;54.10;;;;;;4167770;28;20097;-45
2021/09/01 10:34:23;;;;;;;2.58;2.30;;;24.30;54.10;;;;;;4167953;28;20105;-45
2021/09/01 10:36:29;;;;;;;2.92;2.60;;;24.30;54.20;;;;;;4168045;28;20046;-45
2021/09/01 10:38:31;;;;;;;2.85;2.47;;;24.40;54.10;;;;;;4167948;28;20065;-44
2021/09/01 10:40:33;;;;;;;3.92;2.38;;;24.40;54.20;;;;;;4167978;28;20125;-45
2021/09/01 10:42:44;;;;;;;2.65;2.45;;;24.30;54.30;;;;;;4168046;28;20053;-44
2021/09/01 10:44:48;;;;;;;2.40;2.20;;;24.30;54.40;;;;;;4167971;28;20052;-43